createdAt,value
2023-04-09T00:01:22.527Z,76.40
2023-04-09T00:04:24.586Z,76.50
2023-04-09T00:07:26.786Z,76.70
2023-04-09T00:10:29.687Z,76.70
2023-04-09T00:13:39.360Z,76.50
2023-04-09T00:16:41.924Z,77.20
2023-04-09T00:19:45.085Z,76.70
2023-04-09T00:22:47.054Z,76.90
2023-04-09T00:25:49.252Z,76.00
2023-04-09T00:28:51.707Z,75.80
2023-04-09T00:31:53.900Z,76.20
2023-04-09T00:34:56.004Z,75.80
2023-04-09T00:37:59.951Z,76.50
2023-04-09T00:41:02.104Z,75.90
2023-04-09T00:44:04.160Z,75.50
2023-04-09T00:47:06.377Z,75.50
2023-04-09T00:50:08.850Z,76.00
2023-04-09T00:53:13.134Z,75.90
2023-04-09T00:56:16.680Z,75.80
2023-04-09T00:59:19.952Z,76.00
2023-04-09T01:02:22.175Z,76.10
2023-04-09T01:05:36.035Z,76.60
2023-04-09T01:09:05.782Z,77.10
2023-04-09T01:12:27.492Z,76.90
2023-04-09T01:15:36.829Z,77.00
2023-04-09T01:19:12.766Z,77.20
2023-04-09T01:22:48.948Z,77.20
2023-04-09T01:26:03.020Z,76.30
2023-04-09T01:29:07.396Z,76.30
2023-04-09T01:32:12.412Z,75.70
2023-04-09T01:35:14.840Z,75.70
2023-04-09T01:38:18.828Z,75.70
2023-04-09T01:41:22.187Z,75.20
2023-04-09T01:44:26.355Z,75.00
2023-04-09T01:47:28.840Z,74.90
2023-04-09T01:50:31.731Z,75.10
2023-04-09T01:53:35.134Z,75.20
2023-04-09T01:56:45.465Z,74.70
2023-04-09T01:59:47.577Z,74.70
2023-04-09T02:03:07.150Z,75.00
2023-04-09T02:06:22.847Z,74.90
2023-04-09T02:09:26.562Z,74.30
2023-04-09T02:12:31.810Z,73.70
2023-04-09T02:15:36.630Z,73.90
2023-04-09T02:18:38.715Z,73.90
2023-04-09T02:21:40.730Z,73.40
2023-04-09T02:24:44.093Z,74.20
2023-04-09T02:27:46.094Z,74.40
2023-04-09T02:30:48.106Z,74.50
2023-04-09T02:33:51.587Z,73.90
2023-04-09T02:36:54.850Z,74.00
2023-04-09T02:39:56.929Z,74.00
2023-04-09T02:42:59.237Z,73.40
2023-04-09T02:46:01.378Z,73.30
2023-04-09T02:49:03.466Z,73.10
2023-04-09T02:52:05.750Z,73.00
2023-04-09T02:55:08.400Z,72.70
2023-04-09T02:58:10.574Z,72.50
2023-04-09T03:01:12.656Z,72.40
2023-04-09T03:04:14.802Z,72.80
2023-04-09T03:07:16.887Z,72.70
2023-04-09T03:10:18.866Z,73.20
2023-04-09T03:13:20.988Z,72.80
2023-04-09T03:16:25.366Z,73.10
2023-04-09T03:19:27.451Z,73.00
2023-04-09T03:22:29.435Z,72.90
2023-04-09T03:25:32.521Z,72.80
2023-04-09T03:28:34.540Z,72.70
2023-04-09T03:31:36.691Z,72.30
2023-04-09T03:34:38.914Z,72.10
2023-04-09T03:37:40.946Z,70.30
2023-04-09T03:40:43.151Z,68.90
2023-04-09T03:43:45.472Z,69.50
2023-04-09T03:46:47.581Z,70.30
2023-04-09T03:49:49.714Z,70.70
2023-04-09T03:52:51.765Z,71.00
2023-04-09T03:55:53.769Z,70.50
2023-04-09T03:58:55.771Z,70.20
2023-04-09T04:01:57.901Z,69.80
2023-04-09T04:05:00.570Z,69.80
2023-04-09T04:08:02.744Z,69.80
2023-04-09T04:11:05.683Z,69.70
2023-04-09T04:14:07.762Z,69.50
2023-04-09T04:17:11.729Z,69.20
2023-04-09T04:20:13.947Z,68.60
2023-04-09T04:23:15.948Z,68.20
2023-04-09T04:26:19.097Z,67.70
2023-04-09T04:29:21.176Z,67.30
2023-04-09T04:32:23.277Z,67.00
2023-04-09T04:35:25.501Z,66.70
2023-04-09T04:38:28.625Z,66.30
2023-04-09T04:41:30.690Z,66.40
2023-04-09T04:44:32.774Z,65.90
2023-04-09T04:47:34.856Z,66.40
2023-04-09T04:50:36.912Z,66.50
2023-04-09T04:53:38.904Z,66.50
2023-04-09T04:56:41.167Z,66.50
2023-04-09T04:59:43.334Z,66.40
2023-04-09T05:02:45.605Z,66.90
2023-04-09T05:05:48.570Z,67.00
2023-04-09T05:08:51.199Z,67.60
2023-04-09T05:11:53.628Z,67.60
2023-04-09T05:14:57.150Z,67.60
2023-04-09T05:17:59.744Z,67.80
2023-04-09T05:21:03.604Z,67.60
2023-04-09T05:24:06.425Z,67.60
2023-04-09T05:27:08.473Z,67.70
2023-04-09T05:30:10.905Z,67.20
2023-04-09T05:33:13.197Z,67.10
2023-04-09T05:36:19.138Z,66.80
2023-04-09T05:39:21.250Z,66.90
2023-04-09T05:42:24.533Z,66.80
2023-04-09T05:45:28.655Z,66.90
2023-04-09T05:48:30.852Z,67.20
2023-04-09T05:51:32.920Z,67.00
2023-04-09T05:54:36.573Z,67.40
2023-04-09T05:57:38.698Z,68.40
2023-04-09T06:00:40.902Z,68.40
2023-04-09T06:03:43.977Z,68.40
2023-04-09T06:06:47.195Z,68.80
2023-04-09T06:09:50.394Z,68.60
2023-04-09T06:12:52.416Z,68.90
2023-04-09T06:15:54.416Z,68.80
2023-04-09T06:18:57.062Z,69.40
2023-04-09T06:21:59.094Z,69.30
2023-04-09T06:25:01.206Z,69.30
2023-04-09T06:28:04.428Z,69.60
2023-04-09T06:31:07.655Z,69.50
2023-04-09T06:34:09.802Z,70.10
2023-04-09T06:37:11.818Z,70.50
2023-04-09T06:40:15.594Z,70.70
2023-04-09T06:43:17.955Z,71.30
2023-04-09T06:46:21.348Z,71.50
2023-04-09T06:49:23.426Z,71.70
2023-04-09T06:52:26.366Z,71.70
2023-04-09T06:55:28.462Z,71.60
2023-04-09T06:58:32.599Z,70.70
2023-04-09T07:01:38.598Z,69.80
2023-04-09T07:04:41.573Z,70.30
2023-04-09T07:07:43.662Z,69.00
2023-04-09T07:10:47.498Z,68.60
2023-04-09T07:13:49.552Z,67.70
2023-04-09T07:16:51.551Z,67.80
2023-04-09T07:19:54.645Z,66.80
2023-04-09T07:23:02.168Z,65.10
2023-04-09T07:26:05.563Z,65.00
2023-04-09T07:29:08.115Z,65.10
2023-04-09T07:32:10.138Z,63.40
2023-04-09T07:35:13.747Z,61.80
2023-04-09T07:38:16.442Z,62.10
2023-04-09T07:41:18.704Z,61.50
2023-04-09T07:44:23.393Z,59.00
2023-04-09T07:47:26.195Z,59.40
2023-04-09T07:50:28.634Z,57.30
2023-04-09T07:53:30.861Z,55.70
2023-04-09T07:56:32.845Z,54.10
2023-04-09T07:59:36.574Z,53.50
2023-04-09T08:02:38.949Z,52.30
2023-04-09T08:05:41.388Z,52.40
2023-04-09T08:08:43.922Z,50.10
2023-04-09T08:11:46.323Z,49.30
2023-04-09T08:14:48.753Z,47.10
2023-04-09T08:17:50.773Z,46.30
2023-04-09T08:20:52.745Z,46.90
2023-04-09T08:23:59.427Z,46.50
2023-04-09T08:27:02.236Z,46.70
2023-04-09T08:30:04.839Z,47.30
2023-04-09T08:33:09.691Z,46.70
2023-04-09T08:36:12.227Z,44.80
2023-04-09T08:39:15.513Z,46.20
2023-04-09T08:42:18.909Z,47.10
2023-04-09T08:45:21.150Z,45.10
2023-04-09T08:48:24.777Z,46.50
2023-04-09T08:51:28.759Z,44.70
2023-04-09T08:54:30.829Z,46.90
2023-04-09T08:57:40.943Z,46.30
2023-04-09T09:00:43.783Z,45.00
2023-04-09T09:04:00.739Z,44.10
2023-04-09T09:07:06.892Z,42.40
2023-04-09T09:10:09.123Z,41.50
2023-04-09T09:13:25.179Z,40.70
2023-04-09T09:16:27.752Z,39.50
2023-04-09T09:19:33.569Z,36.60
2023-04-09T09:22:54.522Z,38.60
2023-04-09T09:25:57.609Z,38.00
2023-04-09T09:29:04.195Z,37.70
2023-04-09T09:32:13.813Z,35.80
2023-04-09T09:35:17.776Z,38.40
2023-04-09T09:38:20.719Z,39.50
2023-04-09T09:41:23.230Z,39.50
2023-04-09T09:44:33.247Z,38.00
2023-04-09T09:47:36.571Z,34.90
2023-04-09T09:50:44.203Z,34.60
2023-04-09T09:53:53.784Z,37.00
2023-04-09T09:57:03.038Z,38.30
2023-04-09T10:00:08.091Z,36.80
2023-04-09T10:03:16.243Z,34.00
2023-04-09T10:06:19.008Z,34.00
2023-04-09T10:09:23.487Z,32.10
2023-04-09T10:12:26.098Z,33.40
2023-04-09T10:15:31.969Z,32.90
2023-04-09T10:18:34.866Z,32.00
2023-04-09T10:21:56.651Z,30.00
2023-04-09T10:24:59.938Z,30.30
2023-04-09T10:28:02.599Z,30.40
2023-04-09T10:31:07.904Z,31.30
2023-04-09T10:34:11.000Z,32.70
2023-04-09T10:37:20.528Z,33.00
2023-04-09T10:40:22.643Z,29.70
2023-04-09T10:43:24.659Z,30.80
2023-04-09T10:46:34.250Z,31.90
2023-04-09T10:49:39.289Z,33.30
2023-04-09T10:52:42.540Z,33.70
2023-04-09T10:55:49.020Z,34.60
2023-04-09T10:58:51.883Z,36.50
2023-04-09T11:01:54.727Z,35.30
2023-04-09T11:05:16.420Z,34.20
2023-04-09T11:08:19.833Z,33.80
2023-04-09T11:11:26.887Z,33.80
2023-04-09T11:14:30.038Z,33.50
2023-04-09T11:17:37.124Z,33.40
2023-04-09T11:20:39.909Z,32.80
2023-04-09T11:23:43.384Z,34.90
2023-04-09T11:26:46.072Z,35.00
2023-04-09T11:29:48.074Z,34.30
2023-04-09T11:32:53.894Z,34.00
2023-04-09T11:35:57.108Z,33.90
2023-04-09T11:39:02.447Z,35.10
2023-04-09T11:42:04.590Z,36.20
2023-04-09T11:45:08.176Z,35.60
2023-04-09T11:48:10.531Z,35.70
2023-04-09T11:51:13.747Z,37.20
2023-04-09T11:54:16.068Z,39.40
2023-04-09T11:57:19.400Z,41.90
2023-04-09T12:00:24.920Z,41.40
2023-04-09T12:03:33.020Z,41.30
2023-04-09T12:06:40.828Z,40.50
2023-04-09T12:09:49.257Z,41.80
2023-04-09T12:12:51.376Z,43.80
2023-04-09T12:15:53.936Z,41.90
2023-04-09T12:18:56.037Z,39.90
2023-04-09T12:21:58.574Z,41.40
2023-04-09T12:25:00.640Z,42.00
2023-04-09T12:28:04.105Z,41.90
2023-04-09T12:31:10.351Z,41.10
2023-04-09T12:34:13.520Z,41.60
2023-04-09T12:37:15.836Z,40.70
2023-04-09T12:40:19.419Z,43.60
2023-04-09T12:43:21.578Z,45.10
2023-04-09T12:46:23.603Z,45.60
2023-04-09T12:49:25.861Z,46.30
2023-04-09T12:52:27.849Z,46.10
2023-04-09T12:55:29.890Z,48.30
2023-04-09T12:58:32.043Z,51.40
2023-04-09T13:01:35.726Z,53.10
2023-04-09T13:04:37.939Z,53.40
2023-04-09T13:07:42.828Z,51.30
2023-04-09T13:10:46.554Z,52.40
2023-04-09T13:13:49.548Z,53.80
2023-04-09T13:16:52.803Z,53.20
2023-04-09T13:19:56.251Z,53.20
2023-04-09T13:22:58.280Z,54.60
2023-04-09T13:26:01.339Z,54.80
2023-04-09T13:29:04.345Z,56.00
2023-04-09T13:32:11.295Z,55.80
2023-04-09T13:35:13.639Z,54.80
2023-04-09T13:38:16.729Z,56.10
2023-04-09T13:41:18.720Z,56.10
2023-04-09T13:44:21.376Z,55.90
2023-04-09T13:47:24.197Z,55.40
2023-04-09T13:50:26.613Z,54.70
2023-04-09T13:53:31.394Z,55.40
2023-04-09T13:56:33.418Z,55.70
2023-04-09T13:59:36.247Z,55.50
2023-04-09T14:02:38.470Z,56.30
2023-04-09T14:05:40.701Z,56.10
2023-04-09T14:08:43.724Z,59.00
2023-04-09T14:11:45.756Z,60.80
2023-04-09T14:14:47.908Z,61.20
2023-04-09T14:17:50.007Z,61.10
2023-04-09T14:20:52.222Z,62.20
2023-04-09T14:23:54.205Z,63.20
2023-04-09T14:26:56.986Z,63.00
2023-04-09T14:29:59.912Z,63.50
2023-04-09T14:33:02.065Z,63.00
2023-04-09T14:36:04.392Z,63.40
2023-04-09T14:39:06.370Z,63.40
2023-04-09T14:42:14.583Z,62.90
2023-04-09T14:45:16.843Z,63.00
2023-04-09T14:48:18.888Z,63.00
2023-04-09T14:51:21.009Z,62.70
2023-04-09T14:54:23.030Z,63.00
2023-04-09T14:57:25.826Z,62.90
2023-04-09T15:00:27.853Z,63.40
2023-04-09T15:03:30.014Z,63.50
2023-04-09T15:06:32.362Z,63.40
2023-04-09T15:09:34.416Z,63.20
2023-04-09T15:12:36.540Z,63.90
2023-04-09T15:15:41.249Z,63.70
2023-04-09T15:18:43.224Z,64.40
2023-04-09T15:21:45.332Z,64.10
2023-04-09T15:24:47.451Z,64.10
2023-04-09T15:27:49.839Z,63.60
2023-04-09T15:30:51.800Z,64.20
2023-04-09T15:33:53.842Z,64.00
2023-04-09T15:36:55.944Z,64.30
2023-04-09T15:39:59.085Z,64.70
2023-04-09T15:43:05.440Z,65.20
2023-04-09T15:46:09.571Z,65.50
2023-04-09T15:49:11.730Z,65.50
2023-04-09T15:52:13.888Z,65.60
2023-04-09T15:55:17.056Z,66.40
2023-04-09T15:58:20.080Z,66.70
2023-04-09T16:01:22.437Z,66.70
2023-04-09T16:04:24.618Z,66.90
2023-04-09T16:07:26.853Z,66.90
2023-04-09T16:10:28.841Z,67.80
2023-04-09T16:13:31.073Z,67.30
2023-04-09T16:16:33.311Z,67.20
2023-04-09T16:19:35.633Z,67.60
2023-04-09T16:22:38.663Z,67.10
2023-04-09T16:25:45.009Z,68.00
2023-04-09T16:28:50.378Z,66.00
2023-04-09T16:31:52.932Z,66.50
2023-04-09T16:34:56.221Z,66.50
2023-04-09T16:37:59.293Z,65.80
2023-04-09T16:41:01.562Z,65.30
2023-04-09T16:44:04.119Z,64.90
2023-04-09T16:47:06.767Z,64.60
2023-04-09T16:50:12.095Z,64.20
2023-04-09T16:53:14.154Z,63.90
2023-04-09T16:56:16.801Z,63.60
2023-04-09T16:59:21.094Z,61.90
2023-04-09T17:02:24.952Z,61.40
2023-04-09T17:05:26.987Z,61.40
2023-04-09T17:08:29.017Z,60.50
2023-04-09T17:11:32.705Z,60.50
2023-04-09T17:14:36.822Z,59.10
2023-04-09T17:17:39.363Z,59.50
2023-04-09T17:20:41.406Z,59.80
2023-04-09T17:23:44.399Z,60.00
2023-04-09T17:26:46.442Z,58.70
2023-04-09T17:29:48.611Z,57.80
2023-04-09T17:32:51.267Z,57.60
2023-04-09T17:35:53.351Z,56.90
2023-04-09T17:38:56.734Z,56.70
2023-04-09T17:42:00.783Z,56.20
2023-04-09T17:45:02.878Z,56.10
2023-04-09T17:48:04.967Z,56.80
2023-04-09T17:51:07.871Z,57.20
2023-04-09T17:54:09.931Z,56.90
2023-04-09T17:57:12.084Z,56.40
2023-04-09T18:00:14.606Z,55.70
2023-04-09T18:03:16.897Z,56.00
2023-04-09T18:06:19.144Z,55.40
2023-04-09T18:09:21.616Z,55.70
2023-04-09T18:12:23.760Z,55.20
2023-04-09T18:15:25.852Z,54.50
2023-04-09T18:18:29.657Z,53.80
2023-04-09T18:21:31.989Z,53.60
2023-04-09T18:24:34.588Z,53.60
2023-04-09T18:27:36.835Z,53.60
2023-04-09T18:30:38.977Z,53.90
2023-04-09T18:33:41.264Z,54.00
2023-04-09T18:36:43.378Z,54.20
2023-04-09T18:39:46.435Z,53.90
2023-04-09T18:42:52.530Z,53.90
2023-04-09T18:45:58.298Z,52.10
2023-04-09T18:49:00.296Z,51.60
2023-04-09T18:52:05.516Z,49.70
2023-04-09T18:55:09.530Z,47.80
2023-04-09T18:58:15.851Z,47.40
2023-04-09T19:01:20.140Z,46.70
2023-04-09T19:04:22.562Z,47.40
2023-04-09T19:07:24.555Z,46.60
2023-04-09T19:10:27.389Z,46.50
2023-04-09T19:13:29.615Z,45.70
2023-04-09T19:16:35.737Z,46.10
2023-04-09T19:19:37.852Z,47.10
2023-04-09T19:22:40.108Z,47.50
2023-04-09T19:25:42.964Z,48.10
2023-04-09T19:28:45.014Z,48.60
2023-04-09T19:31:47.121Z,49.50
2023-04-09T19:34:49.170Z,49.10
2023-04-09T19:37:51.477Z,49.60
2023-04-09T19:40:53.617Z,50.50
2023-04-09T19:43:57.242Z,51.80
2023-04-09T19:46:59.570Z,53.20
2023-04-09T19:50:01.729Z,54.60
2023-04-09T19:53:04.784Z,56.70
2023-04-09T19:56:07.275Z,57.80
2023-04-09T19:59:09.365Z,59.40
2023-04-09T20:02:11.525Z,61.90
2023-04-09T20:05:14.396Z,64.60
2023-04-09T20:08:16.794Z,66.70
2023-04-09T20:11:20.430Z,66.40
2023-04-09T20:14:22.525Z,67.70
2023-04-09T20:17:25.245Z,68.60
2023-04-09T20:20:27.362Z,72.40
2023-04-09T20:23:30.302Z,73.60
2023-04-09T20:26:32.455Z,75.30
2023-04-09T20:29:34.746Z,78.30
2023-04-09T20:32:37.877Z,80.50
2023-04-09T20:35:39.926Z,79.70
2023-04-09T20:38:42.007Z,81.80
2023-04-09T20:41:44.144Z,81.40
2023-04-09T20:44:46.204Z,81.70
2023-04-09T20:47:48.351Z,82.60
2023-04-09T20:50:53.933Z,81.90
2023-04-09T20:53:58.158Z,82.10
2023-04-09T20:57:01.610Z,82.80
2023-04-09T21:00:03.820Z,83.80
2023-04-09T21:03:06.059Z,83.10
2023-04-09T21:06:09.810Z,82.80
2023-04-09T21:09:13.880Z,83.20
2023-04-09T21:12:15.993Z,83.40
2023-04-09T21:15:18.078Z,84.20
2023-04-09T21:18:20.184Z,83.60
2023-04-09T21:21:22.283Z,84.10
2023-04-09T21:24:24.372Z,84.10
2023-04-09T21:27:26.462Z,84.20
2023-04-09T21:30:29.168Z,85.40
2023-04-09T21:33:31.318Z,85.60
2023-04-09T21:36:39.423Z,86.10
2023-04-09T21:39:42.142Z,86.20
2023-04-09T21:42:44.150Z,86.90
2023-04-09T21:45:46.729Z,87.10
2023-04-09T21:48:48.787Z,86.80
2023-04-09T21:51:50.876Z,87.50
2023-04-09T21:54:52.882Z,85.60
2023-04-09T21:57:56.291Z,87.10
2023-04-09T22:00:58.463Z,87.30
2023-04-09T22:04:02.168Z,87.40
2023-04-09T22:07:04.341Z,87.60
2023-04-09T22:10:07.037Z,87.30
2023-04-09T22:13:09.025Z,86.70
2023-04-09T22:16:11.434Z,86.30
2023-04-09T22:19:14.442Z,86.80
2023-04-09T22:22:17.727Z,86.50
2023-04-09T22:25:19.993Z,86.00
2023-04-09T22:28:29.357Z,86.60
2023-04-09T22:31:31.623Z,86.30
2023-04-09T22:34:34.133Z,86.50
2023-04-09T22:37:36.395Z,86.70
2023-04-09T22:40:38.443Z,86.30
2023-04-09T22:43:41.524Z,86.80
2023-04-09T22:46:43.565Z,86.20
2023-04-09T22:49:46.960Z,85.70
2023-04-09T22:52:51.620Z,86.50
2023-04-09T22:55:54.990Z,85.90
2023-04-09T22:58:57.033Z,86.30
2023-04-09T23:02:00.496Z,85.90
2023-04-09T23:05:02.642Z,86.30
2023-04-09T23:08:05.153Z,86.10
2023-04-09T23:11:07.368Z,85.50
2023-04-09T23:14:09.401Z,85.20
2023-04-09T23:17:11.486Z,86.30
2023-04-09T23:20:22.297Z,86.60
2023-04-09T23:23:24.438Z,87.10
2023-04-09T23:26:26.538Z,87.30
2023-04-09T23:29:28.640Z,88.00
2023-04-09T23:32:30.827Z,88.00
2023-04-09T23:35:33.276Z,87.10
2023-04-09T23:38:35.504Z,88.40
2023-04-09T23:41:38.740Z,89.10
2023-04-09T23:44:40.814Z,88.50
2023-04-09T23:47:42.989Z,89.60
2023-04-09T23:50:45.071Z,89.30
2023-04-09T23:53:47.232Z,90.30
2023-04-09T23:56:49.338Z,90.40
2023-04-09T23:59:52.394Z,90.60
